createdAt,value
2019-05-03T00:00:17.287Z,11.03
2019-05-03T00:03:08.622Z,11.06
2019-05-03T00:05:41.850Z,11.15
2019-05-03T00:08:13.368Z,11.16
2019-05-03T00:10:44.863Z,11.08
2019-05-03T00:13:16.391Z,11.14
2019-05-03T00:15:55.497Z,11.03
2019-05-03T00:18:27.070Z,11.06
2019-05-03T00:20:58.450Z,11.01
2019-05-03T00:23:29.941Z,10.93
2019-05-03T00:26:02.661Z,10.88
2019-05-03T00:28:35.542Z,10.84
2019-05-03T00:31:07.902Z,10.85
2019-05-03T00:33:42.234Z,10.87
2019-05-03T00:36:18.224Z,10.85
2019-05-03T00:38:52.470Z,10.83
2019-05-03T00:41:23.985Z,10.78
2019-05-03T00:43:56.533Z,10.74
2019-05-03T00:46:29.049Z,10.81
2019-05-03T00:49:00.468Z,10.84
2019-05-03T00:51:31.866Z,10.79
2019-05-03T00:54:03.257Z,10.73
2019-05-03T00:56:34.582Z,10.75
2019-05-03T00:59:05.980Z,10.71
2019-05-03T01:01:37.546Z,10.61
2019-05-03T01:04:09.052Z,10.57
2019-05-03T01:06:42.376Z,10.46
2019-05-03T01:09:22.583Z,10.48
2019-05-03T01:11:53.895Z,10.42
2019-05-03T01:14:25.381Z,10.48
2019-05-03T01:16:56.887Z,10.26
2019-05-03T01:19:28.369Z,10.28
2019-05-03T01:22:01.814Z,10.35
2019-05-03T01:24:34.002Z,10.28
2019-05-03T01:27:05.489Z,10.31
2019-05-03T01:29:36.915Z,10.35
2019-05-03T01:32:08.354Z,10.45
2019-05-03T01:34:41.621Z,10.38
2019-05-03T01:37:13.144Z,10.40
2019-05-03T01:39:44.587Z,10.33
2019-05-03T01:42:15.944Z,10.31
2019-05-03T01:44:47.275Z,10.30
2019-05-03T01:47:24.614Z,10.36
2019-05-03T01:50:00.385Z,10.35
2019-05-03T01:52:33.349Z,10.35
2019-05-03T01:55:05.818Z,10.30
2019-05-03T01:57:37.108Z,10.31
2019-05-03T02:00:13.224Z,10.32
2019-05-03T02:02:49.135Z,10.33
2019-05-03T02:05:22.560Z,10.37
2019-05-03T02:07:54.022Z,10.38
2019-05-03T02:10:25.640Z,10.47
2019-05-03T02:12:57.126Z,10.46
2019-05-03T02:15:28.733Z,10.47
2019-05-03T02:18:00.255Z,10.49
2019-05-03T02:20:32.392Z,10.62
2019-05-03T02:23:03.888Z,10.68
2019-05-03T02:25:35.375Z,10.72
2019-05-03T02:28:06.853Z,10.77
2019-05-03T02:30:38.320Z,10.76
2019-05-03T02:33:13.437Z,10.73
2019-05-03T02:35:45.301Z,10.76
2019-05-03T02:38:16.781Z,10.73
2019-05-03T02:40:49.304Z,10.71
2019-05-03T02:43:25.626Z,10.71
2019-05-03T02:46:16.733Z,10.71
2019-05-03T02:48:55.741Z,10.68
2019-05-03T02:51:26.674Z,10.65
2019-05-03T02:53:57.742Z,10.63
2019-05-03T02:56:31.079Z,10.64
2019-05-03T02:59:02.597Z,10.70
2019-05-03T03:01:35.731Z,10.77
2019-05-03T03:04:07.450Z,10.77
2019-05-03T03:06:41.561Z,10.81
2019-05-03T03:09:16.237Z,10.85
2019-05-03T03:11:46.847Z,10.87
2019-05-03T03:14:21.007Z,10.91
2019-05-03T03:16:55.975Z,10.98
2019-05-03T03:19:30.136Z,11.11
2019-05-03T03:22:05.967Z,11.09
2019-05-03T03:24:39.685Z,11.10
2019-05-03T03:27:16.366Z,11.10
2019-05-03T03:29:50.380Z,11.03
2019-05-03T03:32:29.322Z,10.92
2019-05-03T03:35:10.592Z,10.91
2019-05-03T03:37:37.705Z,10.86
2019-05-03T03:40:09.770Z,10.91
2019-05-03T03:42:44.838Z,10.97
2019-05-03T03:45:16.513Z,11.03
2019-05-03T03:47:52.302Z,11.01
2019-05-03T03:50:26.213Z,11.02
2019-05-03T03:52:59.157Z,11.01
2019-05-03T03:55:32.473Z,11.03
2019-05-03T03:58:06.510Z,11.06
2019-05-03T04:00:39.649Z,11.14
2019-05-03T04:03:11.313Z,11.13
2019-05-03T04:05:42.890Z,11.15
2019-05-03T04:08:16.227Z,11.20
2019-05-03T04:10:47.678Z,11.27
2019-05-03T04:13:21.303Z,11.29
2019-05-03T04:15:56.127Z,11.31
2019-05-03T04:18:41.669Z,11.33
2019-05-03T04:21:16.246Z,11.49
2019-05-03T04:23:47.078Z,11.58
2019-05-03T04:26:18.524Z,11.64
2019-05-03T04:28:50.071Z,11.72
2019-05-03T04:31:22.425Z,11.77
2019-05-03T04:33:56.236Z,11.79
2019-05-03T04:36:26.964Z,11.83
2019-05-03T04:38:58.348Z,11.85
2019-05-03T04:41:29.762Z,11.91
2019-05-03T04:44:01.042Z,12.01
2019-05-03T04:46:32.324Z,12.15
2019-05-03T04:49:05.737Z,12.21
2019-05-03T04:51:37.736Z,12.26
2019-05-03T04:54:19.727Z,12.31
2019-05-03T04:56:51.277Z,12.39
2019-05-03T04:59:25.416Z,12.35
2019-05-03T05:01:56.752Z,12.44
2019-05-03T05:04:28.220Z,12.53
2019-05-03T05:06:59.752Z,12.65
2019-05-03T05:09:31.225Z,12.72
2019-05-03T05:12:05.460Z,12.71
2019-05-03T05:14:35.786Z,12.82
2019-05-03T05:17:08.152Z,12.87
2019-05-03T05:19:44.569Z,12.89
2019-05-03T05:22:20.944Z,12.94
2019-05-03T05:24:52.718Z,12.98
2019-05-03T05:27:25.842Z,13.08
2019-05-03T05:29:57.971Z,13.20
2019-05-03T05:32:29.435Z,13.25
2019-05-03T05:35:00.843Z,13.27
2019-05-03T05:37:32.234Z,13.36
2019-05-03T05:40:05.313Z,13.39
2019-05-03T05:42:36.750Z,13.50
2019-05-03T05:45:08.463Z,13.61
2019-05-03T05:47:44.762Z,13.75
2019-05-03T05:50:18.518Z,13.89
2019-05-03T05:52:50.473Z,13.98
2019-05-03T05:55:34.328Z,14.10
2019-05-03T05:58:10.157Z,14.20
2019-05-03T06:00:56.239Z,14.33
2019-05-03T06:03:27.699Z,14.42
2019-05-03T06:06:00.752Z,14.53
2019-05-03T06:08:39.397Z,14.77
2019-05-03T06:11:12.573Z,14.93
2019-05-03T06:13:51.422Z,15.05
2019-05-03T06:16:27.520Z,15.10
2019-05-03T06:19:00.669Z,15.22
2019-05-03T06:21:47.730Z,15.33
2019-05-03T06:24:24.902Z,15.44
2019-05-03T06:26:58.327Z,15.41
2019-05-03T06:29:29.727Z,15.47
2019-05-03T06:32:05.780Z,15.52
2019-05-03T06:34:37.316Z,15.46
2019-05-03T06:37:10.466Z,15.12
2019-05-03T06:39:41.944Z,15.15
2019-05-03T06:42:17.463Z,15.17
2019-05-03T06:44:46.595Z,15.19
2019-05-03T06:47:19.711Z,15.24
2019-05-03T06:49:51.171Z,15.35
2019-05-03T06:52:25.561Z,15.47
2019-05-03T06:54:55.662Z,15.57
2019-05-03T06:57:27.067Z,15.68
2019-05-03T07:00:16.599Z,15.80
2019-05-03T07:02:55.417Z,15.84
2019-05-03T07:05:40.076Z,16.05
2019-05-03T07:08:25.391Z,16.27
2019-05-03T07:10:58.621Z,16.36
2019-05-03T07:13:30.024Z,16.53
2019-05-03T07:16:01.383Z,16.72
2019-05-03T07:18:34.989Z,16.97
2019-05-03T07:21:06.169Z,17.13
2019-05-03T07:23:37.679Z,17.03
2019-05-03T07:26:09.146Z,17.00
2019-05-03T07:28:46.997Z,17.10
2019-05-03T07:31:15.095Z,17.35
2019-05-03T07:33:46.654Z,17.29
2019-05-03T07:36:17.926Z,17.35
2019-05-03T07:38:49.519Z,17.54
2019-05-03T07:41:26.441Z,17.42
2019-05-03T07:43:55.938Z,17.49
2019-05-03T07:46:27.534Z,17.57
2019-05-03T07:48:59.051Z,17.70
2019-05-03T07:51:30.776Z,17.85
2019-05-03T07:54:04.508Z,17.90
2019-05-03T07:56:44.603Z,17.96
2019-05-03T07:59:15.988Z,18.12
2019-05-03T08:01:49.044Z,18.21
2019-05-03T08:04:21.733Z,18.30
2019-05-03T08:06:54.903Z,18.21
2019-05-03T08:09:26.650Z,18.13
2019-05-03T08:11:57.970Z,18.04
2019-05-03T08:14:29.352Z,17.90
2019-05-03T08:17:00.636Z,17.80
2019-05-03T08:19:32.053Z,17.87
2019-05-03T08:22:04.802Z,18.18
2019-05-03T08:24:36.553Z,18.43
2019-05-03T08:27:08.057Z,18.40
2019-05-03T08:29:39.626Z,18.55
2019-05-03T08:32:29.970Z,18.86
2019-05-03T08:35:15.444Z,19.01
2019-05-03T08:37:48.794Z,19.07
2019-05-03T08:40:21.650Z,18.99
2019-05-03T08:42:55.005Z,18.80
2019-05-03T08:45:26.472Z,18.81
2019-05-03T08:47:58.081Z,18.64
2019-05-03T08:50:29.574Z,18.46
2019-05-03T08:53:02.009Z,18.44
2019-05-03T08:55:35.199Z,18.70
2019-05-03T08:58:06.559Z,19.11
2019-05-03T09:00:39.826Z,19.40
2019-05-03T09:03:11.485Z,19.30
2019-05-03T09:05:45.403Z,19.16
2019-05-03T09:08:16.179Z,19.37
2019-05-03T09:10:54.420Z,19.40
2019-05-03T09:13:27.612Z,19.61
2019-05-03T09:15:59.003Z,19.79
2019-05-03T09:18:30.453Z,19.54
2019-05-03T09:21:02.054Z,19.26
2019-05-03T09:23:35.560Z,19.19
2019-05-03T09:26:06.561Z,19.10
2019-05-03T09:28:38.018Z,19.00
2019-05-03T09:31:09.543Z,18.95
2019-05-03T09:33:41.031Z,19.25
2019-05-03T09:36:14.504Z,19.55
2019-05-03T09:38:45.960Z,19.67
2019-05-03T09:41:17.399Z,19.79
2019-05-03T09:43:48.985Z,19.83
2019-05-03T09:46:23.318Z,19.94
2019-05-03T09:49:03.273Z,20.20
2019-05-03T09:51:26.911Z,20.48
2019-05-03T09:54:12.009Z,20.58
2019-05-03T09:57:00.395Z,20.63
2019-05-03T09:59:31.898Z,20.68
2019-05-03T10:02:04.753Z,20.89
2019-05-03T10:04:36.898Z,20.89
2019-05-03T10:07:09.480Z,20.82
2019-05-03T10:09:40.973Z,21.06
2019-05-03T10:12:16.066Z,21.21
2019-05-03T10:14:47.239Z,20.80
2019-05-03T10:17:35.469Z,20.53
2019-05-03T10:20:09.228Z,20.45
2019-05-03T10:22:40.896Z,20.41
2019-05-03T10:25:12.637Z,20.56
2019-05-03T10:27:46.009Z,20.82
2019-05-03T10:30:20.639Z,21.15
2019-05-03T10:33:02.597Z,21.25
2019-05-03T10:35:35.338Z,21.32
2019-05-03T10:38:06.845Z,21.13
2019-05-03T10:40:38.215Z,21.02
2019-05-03T10:43:10.696Z,20.82
2019-05-03T10:45:45.005Z,20.64
2019-05-03T10:48:17.818Z,20.48
2019-05-03T10:50:51.014Z,20.32
2019-05-03T10:53:31.216Z,20.01
2019-05-03T10:56:22.860Z,19.70
2019-05-03T10:58:59.068Z,19.52
2019-05-03T11:01:45.314Z,19.30
2019-05-03T11:04:17.222Z,19.44
2019-05-03T11:06:48.680Z,19.79
2019-05-03T11:09:20.204Z,20.27
2019-05-03T11:11:51.797Z,20.41
2019-05-03T11:14:25.393Z,20.32
2019-05-03T11:16:56.733Z,20.11
2019-05-03T11:19:28.262Z,19.90
2019-05-03T11:21:59.790Z,19.46
2019-05-03T11:24:31.249Z,18.86
2019-05-03T11:27:04.492Z,18.52
2019-05-03T11:29:44.875Z,18.57
2019-05-03T11:32:25.485Z,19.09
2019-05-03T11:35:04.567Z,19.60
2019-05-03T11:37:46.365Z,19.77
2019-05-03T11:40:18.242Z,19.81
2019-05-03T11:42:50.702Z,19.77
2019-05-03T11:45:24.509Z,19.71
2019-05-03T11:47:55.649Z,19.71
2019-05-03T11:50:27.056Z,19.45
2019-05-03T11:52:58.495Z,18.59
2019-05-03T11:55:30.009Z,17.81
2019-05-03T11:58:05.621Z,17.29
2019-05-03T12:00:39.035Z,17.23
2019-05-03T12:03:15.222Z,17.64
2019-05-03T12:05:47.992Z,18.04
2019-05-03T12:08:19.529Z,18.44
2019-05-03T12:10:58.551Z,18.62
2019-05-03T12:13:30.512Z,18.69
2019-05-03T12:16:02.679Z,18.82
2019-05-03T12:18:48.874Z,18.88
2019-05-03T12:21:10.135Z,19.02
2019-05-03T12:23:42.114Z,19.08
2019-05-03T12:26:17.474Z,19.25
2019-05-03T12:28:49.062Z,19.46
2019-05-03T12:31:31.734Z,19.82
2019-05-03T12:33:55.109Z,20.11
2019-05-03T12:36:26.720Z,20.22
2019-05-03T12:38:58.167Z,20.12
2019-05-03T12:41:30.771Z,20.00
2019-05-03T12:44:04.508Z,19.87
2019-05-03T12:46:36.381Z,19.71
2019-05-03T12:49:07.763Z,19.75
2019-05-03T12:51:39.259Z,19.99
2019-05-03T12:54:10.785Z,20.43
2019-05-03T12:56:46.355Z,20.38
2019-05-03T12:59:37.569Z,20.38
2019-05-03T13:02:10.743Z,20.31
2019-05-03T13:04:47.767Z,20.44
2019-05-03T13:07:23.964Z,20.60
2019-05-03T13:09:55.395Z,20.76
2019-05-03T13:12:28.723Z,20.58
2019-05-03T13:15:00.743Z,20.46
2019-05-03T13:17:36.724Z,20.41
2019-05-03T13:20:16.194Z,20.57
2019-05-03T13:22:47.825Z,20.79
2019-05-03T13:25:19.552Z,21.09
2019-05-03T13:27:51.122Z,21.12
2019-05-03T13:30:24.956Z,21.12
2019-05-03T13:32:56.041Z,21.35
2019-05-03T13:35:27.680Z,21.54
2019-05-03T13:37:59.131Z,21.66
2019-05-03T13:40:31.356Z,21.68
2019-05-03T13:43:04.471Z,21.38
2019-05-03T13:45:35.814Z,21.29
2019-05-03T13:48:07.392Z,21.24
2019-05-03T13:50:38.788Z,21.08
2019-05-03T13:53:11.437Z,21.26
2019-05-03T13:55:44.537Z,21.41
2019-05-03T13:58:16.112Z,21.53
2019-05-03T14:00:47.645Z,21.85
2019-05-03T14:03:19.137Z,21.61
2019-05-03T14:05:50.485Z,21.48
2019-05-03T14:08:22.032Z,21.14
2019-05-03T14:10:55.543Z,20.87
2019-05-03T14:13:26.891Z,20.66
2019-05-03T14:15:58.552Z,20.69
2019-05-03T14:18:30.045Z,20.84
2019-05-03T14:21:04.977Z,20.86
2019-05-03T14:23:54.335Z,21.16
2019-05-03T14:26:26.779Z,21.18
2019-05-03T14:28:58.317Z,21.07
2019-05-03T14:31:29.812Z,21.07
2019-05-03T14:34:01.147Z,21.03
2019-05-03T14:36:35.873Z,21.00
2019-05-03T14:39:10.066Z,20.58
2019-05-03T14:41:41.957Z,20.35
2019-05-03T14:44:15.617Z,20.30
2019-05-03T14:46:46.301Z,20.37
2019-05-03T14:49:17.585Z,20.49
2019-05-03T14:51:50.066Z,20.39
2019-05-03T14:54:24.899Z,20.64
2019-05-03T14:57:10.042Z,20.87
2019-05-03T14:59:59.429Z,20.95
2019-05-03T15:02:42.547Z,21.02
2019-05-03T15:05:09.010Z,21.05
2019-05-03T15:07:41.517Z,21.41
2019-05-03T15:10:15.033Z,21.45
2019-05-03T15:12:46.687Z,21.26
2019-05-03T15:15:19.634Z,21.24
2019-05-03T15:17:52.096Z,21.26
2019-05-03T15:20:25.271Z,20.85
2019-05-03T15:22:56.592Z,20.76
2019-05-03T15:25:28.099Z,20.54
2019-05-03T15:27:59.445Z,20.25
2019-05-03T15:30:30.969Z,20.07
2019-05-03T15:33:04.744Z,20.02
2019-05-03T15:35:35.502Z,20.00
2019-05-03T15:38:07.980Z,19.95
2019-05-03T15:40:39.399Z,19.94
2019-05-03T15:43:18.425Z,19.79
2019-05-03T15:46:00.400Z,19.82
2019-05-03T15:48:39.440Z,19.77
2019-05-03T15:51:10.750Z,19.68
2019-05-03T15:53:44.322Z,19.73
2019-05-03T15:56:15.710Z,19.70
2019-05-03T15:58:47.379Z,19.67
2019-05-03T16:01:18.858Z,19.77
2019-05-03T16:03:50.334Z,19.83
2019-05-03T16:06:21.994Z,19.87
2019-05-03T16:08:55.239Z,19.94
2019-05-03T16:11:29.049Z,20.00
2019-05-03T16:14:00.424Z,20.01
2019-05-03T16:16:31.891Z,19.84
2019-05-03T16:19:05.276Z,19.50
2019-05-03T16:21:36.773Z,19.28
2019-05-03T16:24:09.427Z,19.10
2019-05-03T16:27:00.833Z,18.98
2019-05-03T16:29:32.413Z,18.90
2019-05-03T16:32:05.183Z,18.69
2019-05-03T16:34:36.735Z,18.67
2019-05-03T16:37:09.139Z,18.61
2019-05-03T16:39:40.616Z,18.50
2019-05-03T16:42:15.427Z,18.43
2019-05-03T16:44:46.674Z,18.35
2019-05-03T16:47:18.046Z,18.29
2019-05-03T16:49:49.533Z,18.28
2019-05-03T16:52:21.463Z,18.22
2019-05-03T16:54:54.758Z,18.10
2019-05-03T16:57:27.531Z,18.02
2019-05-03T16:59:58.824Z,17.99
2019-05-03T17:02:30.182Z,17.98
2019-05-03T17:05:04.737Z,17.96
2019-05-03T17:07:38.068Z,17.85
2019-05-03T17:10:15.336Z,17.76
2019-05-03T17:12:46.964Z,17.75
2019-05-03T17:15:18.454Z,17.68
2019-05-03T17:17:50.808Z,17.66
2019-05-03T17:20:22.387Z,17.55
2019-05-03T17:22:55.531Z,17.57
2019-05-03T17:25:27.100Z,17.58
2019-05-03T17:27:58.722Z,17.56
2019-05-03T17:30:33.635Z,17.52
2019-05-03T17:33:04.552Z,17.48
2019-05-03T17:35:36.319Z,17.43
2019-05-03T17:38:07.830Z,17.40
2019-05-03T17:40:41.916Z,17.28
2019-05-03T17:43:23.943Z,17.28
2019-05-03T17:45:57.009Z,17.24
2019-05-03T17:48:28.453Z,17.15
2019-05-03T17:50:59.956Z,17.12
2019-05-03T17:53:56.729Z,17.08
2019-05-03T17:56:30.410Z,17.03
2019-05-03T17:59:05.847Z,17.04
2019-05-03T18:01:38.924Z,16.95
2019-05-03T18:04:15.752Z,16.87
2019-05-03T18:07:04.568Z,16.89
2019-05-03T18:09:37.643Z,16.86
2019-05-03T18:12:09.124Z,16.80
2019-05-03T18:14:40.503Z,16.76
2019-05-03T18:17:11.878Z,16.74
2019-05-03T18:19:44.844Z,16.67
2019-05-03T18:22:16.160Z,16.65
2019-05-03T18:24:47.634Z,16.64
2019-05-03T18:27:19.020Z,16.60
2019-05-03T18:29:51.547Z,16.54
2019-05-03T18:32:22.962Z,16.53
2019-05-03T18:34:54.723Z,16.46
2019-05-03T18:37:27.137Z,16.39
2019-05-03T18:39:58.696Z,16.38
2019-05-03T18:42:36.440Z,16.40
2019-05-03T18:45:09.787Z,16.38
2019-05-03T18:47:46.282Z,16.34
2019-05-03T18:50:21.948Z,16.31
2019-05-03T18:52:55.311Z,16.25
2019-05-03T18:55:29.614Z,16.29
2019-05-03T18:58:01.172Z,16.25
2019-05-03T19:00:35.165Z,16.26
2019-05-03T19:03:06.798Z,16.18
2019-05-03T19:05:48.868Z,16.14
2019-05-03T19:08:44.730Z,16.08
2019-05-03T19:11:20.729Z,16.07
2019-05-03T19:13:55.251Z,16.08
2019-05-03T19:17:01.913Z,16.08
2019-05-03T19:19:35.316Z,16.03
2019-05-03T19:22:07.010Z,15.98
2019-05-03T19:24:38.507Z,15.93
2019-05-03T19:27:13.021Z,15.91
2019-05-03T19:29:45.484Z,15.91
2019-05-03T19:32:16.956Z,15.90
2019-05-03T19:34:51.391Z,15.89
2019-05-03T19:37:21.591Z,15.86
2019-05-03T19:39:55.269Z,15.82
2019-05-03T19:42:28.356Z,15.77
2019-05-03T19:45:00.110Z,15.77
2019-05-03T19:47:31.584Z,15.76
2019-05-03T19:50:04.966Z,15.73
2019-05-03T19:52:56.784Z,15.71
2019-05-03T19:55:28.322Z,15.72
2019-05-03T19:58:01.024Z,15.67
2019-05-03T20:00:38.951Z,15.64
2019-05-03T20:03:15.466Z,15.48
2019-05-03T20:05:51.573Z,15.42
2019-05-03T20:08:24.765Z,15.41
2019-05-03T20:11:15.274Z,15.27
2019-05-03T20:13:47.630Z,15.24
2019-05-03T20:16:19.077Z,15.07
2019-05-03T20:18:50.568Z,15.04
2019-05-03T20:21:21.941Z,14.96
2019-05-03T20:23:55.572Z,14.95
2019-05-03T20:26:27.992Z,14.89
2019-05-03T20:28:59.487Z,14.84
2019-05-03T20:31:31.108Z,14.83
2019-05-03T20:34:02.561Z,14.73
2019-05-03T20:36:35.111Z,14.66
2019-05-03T20:39:08.483Z,14.64
2019-05-03T20:41:40.069Z,14.54
2019-05-03T20:44:29.332Z,14.53
2019-05-03T20:47:18.521Z,14.57
2019-05-03T20:50:11.807Z,14.58
2019-05-03T20:52:44.544Z,14.55
2019-05-03T20:55:16.242Z,14.56
2019-05-03T20:57:47.705Z,14.57
2019-05-03T21:00:25.640Z,14.61
2019-05-03T21:02:57.601Z,14.59
2019-05-03T21:05:33.180Z,14.62
2019-05-03T21:08:05.404Z,14.58
2019-05-03T21:10:36.708Z,14.60
2019-05-03T21:13:09.591Z,14.60
2019-05-03T21:15:44.502Z,14.57
2019-05-03T21:18:17.606Z,14.57
2019-05-03T21:21:08.809Z,14.59
2019-05-03T21:23:58.363Z,14.57
2019-05-03T21:26:29.766Z,14.64
2019-05-03T21:29:01.065Z,14.68
2019-05-03T21:31:32.696Z,14.70
2019-05-03T21:34:05.619Z,14.77
2019-05-03T21:36:37.250Z,14.77
2019-05-03T21:39:08.759Z,14.82
2019-05-03T21:41:41.266Z,14.80
2019-05-03T21:44:15.447Z,14.78
2019-05-03T21:46:48.566Z,14.77
2019-05-03T21:49:27.655Z,14.78
2019-05-03T21:51:59.143Z,14.74
2019-05-03T21:54:30.505Z,14.73
2019-05-03T21:57:01.945Z,14.71
2019-05-03T21:59:35.295Z,14.66
2019-05-03T22:02:06.612Z,14.69
2019-05-03T22:04:38.214Z,14.68
2019-05-03T22:07:09.743Z,14.69
2019-05-03T22:09:41.055Z,14.68
2019-05-03T22:12:14.376Z,14.64
2019-05-03T22:14:47.974Z,14.63
2019-05-03T22:17:37.295Z,14.64
2019-05-03T22:20:30.998Z,14.57
2019-05-03T22:23:04.551Z,14.55
2019-05-03T22:25:37.814Z,14.45
2019-05-03T22:28:09.348Z,14.46
2019-05-03T22:30:41.782Z,14.46
2019-05-03T22:33:14.521Z,14.47
2019-05-03T22:35:45.996Z,14.40
2019-05-03T22:38:17.335Z,14.43
2019-05-03T22:40:48.876Z,14.40
2019-05-03T22:43:20.371Z,14.31
2019-05-03T22:45:51.745Z,14.22
2019-05-03T22:48:24.992Z,14.30
2019-05-03T22:50:58.795Z,14.26
2019-05-03T22:53:31.807Z,14.34
2019-05-03T22:56:04.879Z,14.36
2019-05-03T22:58:36.668Z,14.32
2019-05-03T23:01:16.423Z,14.33
2019-05-03T23:03:46.168Z,14.21
2019-05-03T23:06:22.147Z,14.21
2019-05-03T23:08:50.730Z,14.28
2019-05-03T23:11:22.181Z,14.26
2019-05-03T23:14:04.641Z,14.26
2019-05-03T23:16:35.898Z,14.24
2019-05-03T23:19:08.346Z,14.24
2019-05-03T23:21:41.453Z,14.19
2019-05-03T23:24:12.908Z,14.18
2019-05-03T23:26:45.203Z,14.23
2019-05-03T23:29:16.829Z,14.12
2019-05-03T23:31:49.757Z,14.08
2019-05-03T23:34:21.046Z,14.04
2019-05-03T23:36:52.370Z,14.06
2019-05-03T23:39:25.194Z,14.04
2019-05-03T23:41:56.435Z,13.98
2019-05-03T23:44:28.773Z,13.95
2019-05-03T23:47:05.192Z,13.91
2019-05-03T23:49:37.757Z,13.83
2019-05-03T23:52:14.934Z,13.78
2019-05-03T23:54:46.406Z,13.77
2019-05-03T23:57:17.636Z,13.72
2019-05-03T23:59:49.095Z,13.65
